createdAt,value
2022-08-20T06:14:02.110Z,4.41
2022-08-20T06:24:02.294Z,5.96
2022-08-20T06:34:02.131Z,5.18
2022-08-20T06:44:02.251Z,5.88
2022-08-20T06:54:02.212Z,3.90
2022-08-20T07:04:02.118Z,2.58
2022-08-20T07:14:02.583Z,2.34
2022-08-20T07:24:02.252Z,4.95
2022-08-20T07:34:02.203Z,3.60
2022-08-20T07:44:02.317Z,6.30
2022-08-20T07:54:02.324Z,8.47
2022-08-20T08:04:02.341Z,4.30
2022-08-20T08:14:02.164Z,4.08
2022-08-20T08:24:02.206Z,6.31
2022-08-20T08:34:02.465Z,0.24
2022-08-20T08:44:02.558Z,0.00
2022-08-20T08:54:06.676Z,0.00
2022-08-20T09:04:02.553Z,0.00
2022-08-20T09:14:02.786Z,0.00
2022-08-20T09:24:02.694Z,0.00
2022-08-20T09:34:02.595Z,0.00
2022-08-20T09:44:02.722Z,0.00
2022-08-20T09:54:02.730Z,0.00
2022-08-20T10:04:02.746Z,0.00
2022-08-20T10:14:02.584Z,0.00
2022-08-20T10:24:02.761Z,0.00
2022-08-20T10:34:02.748Z,0.00
2022-08-20T10:44:02.642Z,0.00
2022-08-20T10:54:02.722Z,0.00
2022-08-20T11:04:02.717Z,0.00
2022-08-20T11:14:02.825Z,0.00
2022-08-20T11:24:03.185Z,0.00
2022-08-20T11:34:02.646Z,0.00
2022-08-20T11:44:20.949Z,0.17
2022-08-20T11:54:02.686Z,13.18
2022-08-20T12:04:02.664Z,14.70
2022-08-20T12:14:02.717Z,13.37
2022-08-20T12:24:02.739Z,9.06
2022-08-20T12:34:02.790Z,4.83
2022-08-20T12:44:02.708Z,5.76
2022-08-20T12:54:02.734Z,4.54
2022-08-20T13:04:02.723Z,0.00
2022-08-20T13:14:02.859Z,0.00
2022-08-20T13:24:02.898Z,0.00
2022-08-20T13:34:03.084Z,0.00
2022-08-20T13:44:03.041Z,0.00
2022-08-20T13:54:03.398Z,0.00
2022-08-20T14:04:03.453Z,0.00
2022-08-20T14:14:03.564Z,0.00
2022-08-20T14:24:03.753Z,0.00
2022-08-20T14:34:03.889Z,0.00
2022-08-20T14:44:05.295Z,0.00
2022-08-20T14:54:03.929Z,0.00
2022-08-20T15:04:03.984Z,0.00
2022-08-20T15:14:04.070Z,0.00
2022-08-20T15:24:03.876Z,0.00
2022-08-20T15:34:03.856Z,0.00
2022-08-20T15:44:03.873Z,0.00
2022-08-20T15:54:03.941Z,0.00
2022-08-20T16:04:03.859Z,0.00
2022-08-20T16:14:03.966Z,0.00
2022-08-20T16:24:04.023Z,0.00
2022-08-20T16:34:03.856Z,0.00
2022-08-20T16:44:03.838Z,0.00
2022-08-20T16:54:03.980Z,0.00
2022-08-20T17:04:03.946Z,0.00
2022-08-20T17:14:03.827Z,0.00
2022-08-20T17:24:03.954Z,0.00
2022-08-20T17:34:03.962Z,0.00
2022-08-20T17:44:04.015Z,0.00
2022-08-20T17:54:03.840Z,0.00
2022-08-20T18:04:03.831Z,0.00
2022-08-20T18:14:04.157Z,0.00
2022-08-20T18:24:04.137Z,0.00
2022-08-20T18:34:04.298Z,1.09
2022-08-20T18:44:04.350Z,5.33
2022-08-20T18:54:04.680Z,11.33
2022-08-20T19:04:04.678Z,10.62
2022-08-20T19:14:04.615Z,8.94
